2VG6 weather

Rychlk Heliport
Manassas, Virginia, United States

Public forecast

Using degrees Fahrenheit for public forecast. Weather courtesy of forecast.io.

Closest aviation weather report (METAR) to Rychlk Heliport

Closest report is Manassas Regional Airport/Harry P. Davis Field, 5.9 nm (10.8 km) ESE. Retrieved 2020/05/26 03:56 UTC (54 minutes ago):

KHEF 260356Z AUTO 00000KT 10SM CLR 16/15 A3018 RMK AO2 SLP226 T01560150 402500150

Closest aviation forecast (TAF) to Rychlk Heliport

Closest forecast is Washington Dulles International Airport, 13.7 nm (25.4 km) NE. Retrieved 2020-05-26 00:30 UTC (4 hours ago):

TAF KIAD 252328Z 2600/2706 12005KT P6SM SCT035 FM260900 VRB03KT 5SM BR BKN005 FM261300 12004KT P6SM BKN015 FM261500 13005KT P6SM BKN025 FM261800 14008KT P6SM SCT030 FM270500 14005KT P6SM BKN015